Time;durP1;ratioP1;P1;durP2;ratioP2;P2;SDS_P1;SDS_P2;PMS_P1;PMS_P2;Temp;Humidity;BMP_temperature;BMP_pressure;BME280_temperature;BME280_humidity;BME280_pressure;Samples;Min_cycle;Max_cycle;Signal;HPM_P1;HPM_P2
2023/06/11 00:00:16;;;;;;;9.30;5.90;;;;;;;20.47;68.02;100348.16;105454;1253;63783;-52
2023/06/11 00:02:43;;;;;;;8.50;6.20;;;;;;;20.46;67.72;100343.70;105611;1250;60641;-54
2023/06/11 00:05:11;;;;;;;11.60;6.30;;;;;;;20.44;67.73;100342.32;105603;1250;60366;-50
2023/06/11 00:07:39;;;;;;;7.30;5.70;;;;;;;20.41;67.98;100341.05;106488;1250;64894;-53
2023/06/11 00:10:07;;;;;;;7.80;5.80;;;;;;;20.36;68.13;100337.20;105864;1256;61344;-53
2023/06/11 00:12:34;;;;;;;8.70;6.20;;;;;;;20.30;68.20;100340.98;105551;1259;63704;-53
2023/06/11 00:15:02;;;;;;;8.70;6.30;;;;;;;20.29;68.26;100346.51;105476;1254;60560;-53
2023/06/11 00:17:32;;;;;;;10.50;6.20;;;;;;;20.29;68.37;100348.34;105920;1253;60610;-52
2023/06/11 00:20:09;;;;;;;8.60;6.70;;;;;;;20.28;68.38;100350.23;105529;1259;64965;-52
2023/06/11 00:22:38;;;;;;;8.60;7.10;;;;;;;20.24;68.31;100353.14;105699;1258;60450;-54
2023/06/11 00:25:07;;;;;;;8.90;6.40;;;;;;;20.20;68.53;100355.80;105799;1255;62716;-54
2023/06/11 00:27:35;;;;;;;8.80;5.80;;;;;;;20.18;68.61;100356.56;106150;1250;60466;-52
2023/06/11 00:30:04;;;;;;;9.90;7.00;;;;;;;20.15;68.71;100357.77;105766;1251;60454;-52
2023/06/11 00:32:32;;;;;;;9.30;6.60;;;;;;;20.16;68.68;100358.19;105708;1250;64947;-53
2023/06/11 00:35:01;;;;;;;9.80;7.20;;;;;;;20.13;68.58;100358.40;108741;1256;61288;-53
2023/06/11 00:37:32;;;;;;;9.00;6.80;;;;;;;20.10;68.73;100359.95;105687;1253;63771;-52
2023/06/11 00:40:00;;;;;;;8.40;6.10;;;;;;;20.12;68.91;100359.57;105687;1259;60557;-53
2023/06/11 00:42:28;;;;;;;12.00;5.90;;;;;;;20.13;68.75;100363.70;105738;1250;60575;-53
2023/06/11 00:44:55;;;;;;;9.20;6.70;;;;;;;20.13;68.57;100362.00;105674;1256;63674;-51
2023/06/11 00:47:23;;;;;;;8.50;6.60;;;;;;;20.12;68.44;100365.61;105576;1259;61390;-53
2023/06/11 00:49:50;;;;;;;10.20;6.70;;;;;;;20.09;68.47;100367.58;105757;1256;63701;-52
2023/06/11 00:52:19;;;;;;;8.90;6.00;;;;;;;20.03;68.35;100369.20;105523;1253;60487;-51
2023/06/11 00:54:47;;;;;;;9.50;6.00;;;;;;;20.01;68.05;100370.19;105719;1257;60525;-52
2023/06/11 00:57:17;;;;;;;10.90;6.40;;;;;;;19.99;67.69;100376.17;105587;1253;64872;-51
2023/06/11 00:59:48;;;;;;;8.90;5.40;;;;;;;19.96;67.24;100377.68;106720;1254;61402;-52
2023/06/11 01:02:27;;;;;;;8.50;5.80;;;;;;;19.90;66.93;100382.13;105485;1253;63830;-52
2023/06/11 01:04:57;;;;;;;8.20;5.60;;;;;;;19.78;66.44;100386.36;105580;1259;60434;-53
2023/06/11 01:07:30;;;;;;;9.70;5.80;;;;;;;19.67;66.64;100389.16;105560;1259;60429;-51
2023/06/11 01:09:59;;;;;;;9.90;5.10;;;;;;;19.60;66.66;100391.15;105620;1254;64928;-51
2023/06/11 01:12:27;;;;;;;9.20;5.70;;;;;;;19.56;66.57;100400.44;105512;1253;61318;-51
2023/06/11 01:14:55;;;;;;;8.70;5.20;;;;;;;19.50;66.66;100403.56;105559;1254;63745;-50
2023/06/11 01:17:35;;;;;;;7.10;5.20;;;;;;;19.46;66.80;100408.99;105625;1250;60463;-52
2023/06/11 01:20:13;;;;;;;8.90;5.60;;;;;;;19.39;66.69;100413.20;105676;1256;60458;-51
2023/06/11 01:22:51;;;;;;;8.80;5.10;;;;;;;19.37;66.94;100412.58;105731;1255;63718;-51
2023/06/11 01:25:48;;;;;;;8.30;5.50;;;;;;;19.38;66.71;100417.63;105981;1258;61328;-50
2023/06/11 01:28:19;;;;;;;7.90;5.20;;;;;;;19.38;66.77;100421.78;105658;1253;63759;-51
2023/06/11 01:30:50;;;;;;;10.20;5.30;;;;;;;19.34;66.46;100422.94;105524;1254;60572;-53
2023/06/11 01:33:18;;;;;;;12.50;5.30;;;;;;;19.26;66.18;100424.53;105563;1259;61985;-51
2023/06/11 01:35:52;;;;;;;11.70;5.50;;;;;;;19.18;66.16;100423.33;105601;1253;63695;-51
2023/06/11 01:38:21;;;;;;;8.60;5.40;;;;;;;19.14;66.26;100426.29;105588;1257;61312;-51
2023/06/11 01:40:50;;;;;;;9.10;5.40;;;;;;;19.11;66.09;100424.66;105521;1253;63716;-53
2023/06/11 01:43:18;;;;;;;6.70;4.80;;;;;;;19.07;66.00;100423.64;105512;1250;60407;-52
2023/06/11 01:45:46;;;;;;;8.70;5.30;;;;;;;19.01;66.11;100420.41;105711;1256;60362;-51
2023/06/11 01:48:14;;;;;;;10.20;5.70;;;;;;;18.95;66.06;100423.16;105732;1256;64853;-52
2023/06/11 01:50:42;;;;;;;10.40;5.10;;;;;;;18.88;66.36;100425.34;105849;1250;61514;-52
2023/06/11 01:53:10;;;;;;;7.60;4.70;;;;;;;18.87;66.13;100426.41;105604;1257;64481;-51
2023/06/11 01:55:38;;;;;;;8.50;5.50;;;;;;;18.85;66.14;100429.33;105558;1259;60408;-52
2023/06/11 01:58:05;;;;;;;10.40;5.70;;;;;;;18.80;66.01;100431.76;105733;1251;61208;-51
2023/06/11 02:00:33;;;;;;;8.90;4.90;;;;;;;18.76;66.13;100435.86;105571;1257;64911;-51
2023/06/11 02:03:02;;;;;;;8.20;4.80;;;;;;;18.72;66.36;100434.89;105566;1258;61362;-50
2023/06/11 02:05:31;;;;;;;10.90;5.50;;;;;;;18.71;66.28;100439.47;105977;1254;63728;-53
2023/06/11 02:07:58;;;;;;;8.30;4.50;;;;;;;18.71;66.25;100438.59;105566;1258;60511;-52
2023/06/11 02:10:26;;;;;;;8.20;4.80;;;;;;;18.68;66.23;100443.41;105681;1253;60592;-52
2023/06/11 02:12:53;;;;;;;8.60;5.00;;;;;;;18.65;66.51;100445.58;105589;1253;65396;-52
2023/06/11 02:15:21;;;;;;;8.30;4.80;;;;;;;18.62;66.40;100450.27;105438;1259;61890;-51
2023/06/11 02:17:49;;;;;;;7.90;4.40;;;;;;;18.63;66.29;100447.19;105476;1259;63712;-51
2023/06/11 02:20:16;;;;;;;8.80;4.50;;;;;;;18.65;65.49;100445.19;105547;1258;60915;-50
2023/06/11 02:22:44;;;;;;;8.00;5.10;;;;;;;18.62;65.32;100447.97;105466;1253;60420;-50
2023/06/11 02:25:12;;;;;;;8.00;4.50;;;;;;;18.58;65.55;100448.08;105420;1252;63657;-51
2023/06/11 02:27:40;;;;;;;8.70;5.20;;;;;;;18.55;65.60;100446.70;105466;1253;62131;-52
2023/06/11 02:30:08;;;;;;;8.70;5.20;;;;;;;18.51;65.80;100446.38;105610;1257;63757;-51
2023/06/11 02:32:35;;;;;;;6.70;4.40;;;;;;;18.49;65.86;100443.42;105618;1256;61159;-51
2023/06/11 02:35:04;;;;;;;9.80;5.60;;;;;;;18.45;65.97;100447.02;105505;1253;60792;-51
2023/06/11 02:37:31;;;;;;;8.60;5.00;;;;;;;18.42;66.11;100453.08;105628;1256;64895;-52
2023/06/11 02:39:59;;;;;;;10.40;4.70;;;;;;;18.41;65.90;100456.77;105513;1258;61435;-51
2023/06/11 02:42:26;;;;;;;7.70;4.80;;;;;;;18.42;65.54;100460.91;105471;1257;71719;-52
2023/06/11 02:44:54;;;;;;;6.90;4.90;;;;;;;18.41;65.33;100461.58;105507;1256;60651;-52
2023/06/11 02:47:22;;;;;;;8.50;5.00;;;;;;;18.34;65.06;100463.02;105733;1253;61118;-51
2023/06/11 02:49:49;;;;;;;11.50;5.10;;;;;;;18.27;65.04;100457.09;105782;1257;63685;-53
2023/06/11 02:52:17;;;;;;;8.80;4.60;;;;;;;18.19;64.91;100460.92;105657;1256;61353;-51
2023/06/11 02:54:45;;;;;;;7.00;4.50;;;;;;;18.12;65.01;100463.90;105607;1257;62616;-52
2023/06/11 02:57:13;;;;;;;6.70;4.00;;;;;;;18.09;65.09;100465.09;105461;1256;60501;-53
2023/06/11 02:59:40;;;;;;;7.50;4.20;;;;;;;18.06;64.77;100462.64;105377;1252;60533;-50
2023/06/11 03:02:08;;;;;;;10.40;4.50;;;;;;;18.00;64.78;100459.52;105423;1257;64986;-51
2023/06/11 03:04:36;;;;;;;8.90;4.60;;;;;;;17.93;64.57;100460.27;108742;1258;61917;-48
2023/06/11 03:07:04;;;;;;;9.00;4.30;;;;;;;17.89;64.63;100464.40;109337;1251;62613;-49
2023/06/11 03:09:32;;;;;;;8.50;4.00;;;;;;;17.88;64.79;100466.86;105751;1256;60585;-50
2023/06/11 03:11:59;;;;;;;9.60;4.10;;;;;;;17.88;64.38;100469.90;105371;1259;60538;-51
2023/06/11 03:14:28;;;;;;;6.00;3.30;;;;;;;17.88;64.11;100479.45;105398;1259;64951;-51
2023/06/11 03:16:55;;;;;;;7.40;3.60;;;;;;;17.86;63.76;100479.86;105404;1256;61304;-50
2023/06/11 03:19:23;;;;;;;8.20;4.00;;;;;;;17.82;64.07;100478.46;105343;1253;64199;-50
2023/06/11 03:21:51;;;;;;;7.60;4.10;;;;;;;17.79;63.82;100477.20;109322;1253;58443;-50
2023/06/11 03:24:19;;;;;;;5.70;3.10;;;;;;;17.77;63.78;100477.75;109379;1252;58462;-54
2023/06/11 03:26:47;;;;;;;7.50;4.00;;;;;;;17.82;63.73;100482.75;106364;1253;64852;-48
2023/06/11 03:29:15;;;;;;;7.80;3.90;;;;;;;17.87;63.66;100482.07;105304;1253;60900;-48
2023/06/11 03:31:45;;;;;;;12.40;4.40;;;;;;;17.89;63.54;100476.55;109283;1254;63660;-51
2023/06/11 03:34:13;;;;;;;8.40;3.80;;;;;;;17.87;63.45;100475.32;108444;1256;59605;-50
2023/06/11 03:36:41;;;;;;;7.60;4.20;;;;;;;17.87;63.48;100470.23;105226;1257;60426;-51
2023/06/11 03:39:11;;;;;;;10.30;4.20;;;;;;;17.85;63.52;100471.10;105406;1257;66286;-48
2023/06/11 03:41:39;;;;;;;7.80;3.60;;;;;;;17.85;63.43;100471.45;105255;1263;61362;-47
2023/06/11 03:44:07;;;;;;;5.90;3.50;;;;;;;17.85;63.54;100470.02;105186;1255;72684;-49
2023/06/11 03:46:35;;;;;;;6.50;3.70;;;;;;;17.81;63.42;100468.27;105600;1257;60582;-48
2023/06/11 03:49:03;;;;;;;9.70;4.50;;;;;;;17.78;63.84;100470.61;105466;1259;60362;-51
2023/06/11 03:51:31;;;;;;;7.00;3.40;;;;;;;17.76;64.02;100470.81;105414;1256;64888;-51
2023/06/11 03:53:58;;;;;;;6.90;3.80;;;;;;;17.77;63.88;100473.73;105507;1257;61290;-49
2023/06/11 03:56:26;;;;;;;7.30;3.60;;;;;;;17.77;63.44;100470.80;105580;1258;63875;-54
2023/06/11 03:58:54;;;;;;;5.90;3.20;;;;;;;17.75;63.47;100469.64;105450;1253;60755;-51
2023/06/11 04:01:23;;;;;;;12.50;3.80;;;;;;;17.73;63.44;100472.70;105267;1258;61557;-55
2023/06/11 04:03:52;;;;;;;6.30;3.70;;;;;;;17.71;63.53;100475.57;105460;1257;64935;-51
2023/06/11 04:06:20;;;;;;;9.40;3.30;;;;;;;17.70;63.52;100476.27;105439;1257;61431;-54
2023/06/11 04:08:47;;;;;;;8.20;3.50;;;;;;;17.69;62.93;100474.73;105459;1256;62440;-52
2023/06/11 04:11:15;;;;;;;6.60;3.40;;;;;;;17.68;62.87;100477.33;105476;1253;60617;-50
2023/06/11 04:13:49;;;;;;;5.70;3.30;;;;;;;17.65;62.84;100475.17;104959;1258;294316;-49
2023/06/11 04:18:05;;;;;;;5.40;3.30;;;;;;;17.30;63.89;100472.77;102207;1291;607536;-50
2023/06/11 04:20:34;;;;;;;6.10;3.40;;;;;;;17.51;63.04;100477.73;104604;1269;59169;-50
2023/06/11 04:23:01;;;;;;;7.60;3.60;;;;;;;17.56;62.92;100482.69;104470;1269;59349;-51
2023/06/11 04:25:31;;;;;;;6.20;3.30;;;;;;;17.59;62.82;100485.71;106835;1263;63374;-50
2023/06/11 04:27:59;;;;;;;6.00;3.20;;;;;;;17.62;63.00;100488.48;105673;1267;60241;-51
2023/06/11 04:30:26;;;;;;;6.60;3.60;;;;;;;17.64;62.79;100491.03;105408;1251;205322;-50
2023/06/11 04:32:54;;;;;;;7.10;3.30;;;;;;;17.65;62.36;100490.27;109356;1251;56932;-51
2023/06/11 04:35:24;;;;;;;7.90;3.60;;;;;;;17.60;61.63;100492.23;109359;1252;57287;-50
2023/06/11 04:37:51;;;;;;;5.30;3.00;;;;;;;17.55;61.51;100497.52;109408;1251;70534;-51
2023/06/11 04:40:23;;;;;;;6.80;3.40;;;;;;;17.58;61.97;100504.27;109245;1251;61357;-50
2023/06/11 04:42:50;;;;;;;7.00;3.00;;;;;;;17.66;62.00;100506.46;109396;1250;64011;-50
2023/06/11 04:45:18;;;;;;;9.00;3.10;;;;;;;17.75;61.69;100508.41;109329;1250;57447;-50
2023/06/11 04:47:46;;;;;;;6.70;3.00;;;;;;;17.80;61.55;100506.23;105742;1251;59809;-49
2023/06/11 04:50:20;;;;;;;5.90;2.90;;;;;;;17.80;61.10;100504.03;105780;1254;64180;-49
2023/06/11 04:52:51;;;;;;;5.80;3.40;;;;;;;17.77;60.88;100503.48;105705;1251;61573;-49
2023/06/11 04:55:21;;;;;;;5.60;2.60;;;;;;;17.72;60.41;100500.29;105761;1251;63786;-50
2023/06/11 04:57:49;;;;;;;4.80;2.60;;;;;;;17.73;60.41;100505.38;109386;1250;57727;-51
2023/06/11 05:00:17;;;;;;;10.90;3.20;;;;;;;17.73;60.07;100510.39;109346;1250;58023;-51
2023/06/11 05:02:44;;;;;;;6.60;2.90;;;;;;;17.72;60.23;100512.58;107288;1250;64418;-50
2023/06/11 05:05:12;;;;;;;5.10;2.70;;;;;;;17.72;59.89;100508.66;106061;1251;61555;-50
2023/06/11 05:07:41;;;;;;;5.90;2.80;;;;;;;17.72;59.91;100511.52;105540;1251;63814;-49
2023/06/11 05:10:08;;;;;;;7.70;2.80;;;;;;;17.68;59.61;100507.14;105441;1256;59736;-49
2023/06/11 05:12:36;;;;;;;6.00;3.10;;;;;;;17.63;59.67;100510.48;105733;1251;59753;-51
2023/06/11 05:15:04;;;;;;;7.80;3.00;;;;;;;17.60;59.54;100514.75;105734;1253;64251;-50
2023/06/11 05:17:32;;;;;;;11.70;3.70;;;;;;;17.59;59.49;100519.60;105613;1254;61690;-50
2023/06/11 05:19:59;;;;;;;6.40;3.40;;;;;;;17.57;59.82;100524.42;105768;1251;64020;-50
2023/06/11 05:22:26;;;;;;;5.80;2.60;;;;;;;17.57;59.60;100528.05;105744;1250;60012;-50
2023/06/11 05:24:54;;;;;;;6.00;2.90;;;;;;;17.54;59.35;100528.54;106406;1256;59740;-49
2023/06/11 05:27:23;;;;;;;5.90;2.60;;;;;;;17.48;59.33;100523.45;105807;1254;64205;-48
2023/06/11 05:29:51;;;;;;;5.40;3.00;;;;;;;17.43;59.39;100525.64;106469;1256;61581;-50
2023/06/11 05:32:17;;;;;;;5.80;3.10;;;;;;;17.43;59.66;100530.89;105771;1251;64033;-49
2023/06/11 05:34:45;;;;;;;5.10;2.90;;;;;;;17.47;60.08;100530.00;105609;1254;59742;-49
2023/06/11 05:37:14;;;;;;;8.10;3.40;;;;;;;17.49;60.30;100528.94;105796;1251;59553;-50
2023/06/11 05:39:41;;;;;;;6.10;3.10;;;;;;;17.50;60.03;100528.73;105563;1257;64283;-50
2023/06/11 05:42:08;;;;;;;6.00;3.10;;;;;;;17.52;59.80;100529.58;105650;1250;61728;-50
2023/06/11 05:44:35;;;;;;;6.00;2.50;;;;;;;17.54;59.75;100533.09;105726;1256;64124;-50
2023/06/11 05:47:02;;;;;;;7.00;3.30;;;;;;;17.54;59.29;100538.05;105981;1250;59724;-50
2023/06/11 05:49:30;;;;;;;5.20;2.80;;;;;;;17.53;59.44;100546.96;105600;1254;59648;-50
2023/06/11 05:51:57;;;;;;;5.70;2.70;;;;;;;17.49;59.52;100544.30;106347;1252;64288;-50
2023/06/11 05:54:24;;;;;;;5.60;2.60;;;;;;;17.46;59.50;100545.98;105880;1251;61778;-50
2023/06/11 05:56:51;;;;;;;6.00;2.80;;;;;;;17.46;59.78;100548.83;105893;1253;63998;-51
2023/06/11 05:59:19;;;;;;;8.70;2.50;;;;;;;17.48;60.03;100549.39;105911;1254;62002;-51
2023/06/11 06:01:47;;;;;;;6.40;3.10;;;;;;;17.52;60.01;100552.85;105649;1254;59760;-50
2023/06/11 06:04:16;;;;;;;8.60;3.00;;;;;;;17.55;59.90;100556.22;105669;1254;64282;-50
2023/06/11 06:06:43;;;;;;;9.20;3.10;;;;;;;17.54;59.51;100557.25;105668;1253;62528;-51
2023/06/11 06:09:10;;;;;;;6.80;2.20;;;;;;;17.49;59.45;100560.26;105676;1251;63710;-51
2023/06/11 06:11:38;;;;;;;5.80;2.80;;;;;;;17.45;59.39;100561.55;105945;1252;59744;-51
2023/06/11 06:14:05;;;;;;;11.30;2.80;;;;;;;17.39;59.23;100562.34;105562;1253;59666;-49
2023/06/11 06:16:32;;;;;;;7.50;2.90;;;;;;;17.30;59.00;100562.63;105668;1254;64260;-50
2023/06/11 06:19:00;;;;;;;6.80;3.00;;;;;;;17.21;59.02;100569.60;106216;1254;61615;-50
2023/06/11 06:21:28;;;;;;;6.90;2.80;;;;;;;17.19;59.55;100568.70;105598;1251;63861;-50
2023/06/11 06:23:55;;;;;;;7.60;2.30;;;;;;;17.22;59.65;100565.19;105538;1252;59697;-50
2023/06/11 06:26:23;;;;;;;5.90;2.20;;;;;;;17.24;59.75;100568.63;105513;1254;59622;-51
2023/06/11 06:28:50;;;;;;;8.60;3.20;;;;;;;17.24;60.12;100564.43;105676;1254;64340;-50
2023/06/11 06:31:17;;;;;;;13.00;2.90;;;;;;;17.25;60.16;100561.54;105652;1254;61656;-50
2023/06/11 06:33:45;;;;;;;6.10;2.70;;;;;;;17.24;60.31;100561.50;105690;1254;63959;-49
2023/06/11 06:36:13;;;;;;;7.30;2.50;;;;;;;17.20;59.89;100564.20;105671;1251;59620;-51
2023/06/11 06:38:40;;;;;;;8.10;2.50;;;;;;;17.19;59.67;100569.41;105514;1251;59655;-51
2023/06/11 06:41:07;;;;;;;7.20;2.50;;;;;;;17.16;59.78;100572.46;105587;1253;64673;-50
2023/06/11 06:43:34;;;;;;;8.00;3.00;;;;;;;17.09;59.38;100574.91;105348;1254;61552;-50
2023/06/11 06:46:05;;;;;;;7.20;3.50;;;;;;;17.01;59.11;100575.42;105646;1256;62777;-49
2023/06/11 06:48:33;;;;;;;5.30;2.80;;;;;;;16.95;59.70;100577.66;105409;1251;59616;-50
2023/06/11 06:51:00;;;;;;;4.50;2.10;;;;;;;16.92;59.98;100578.44;105653;1252;59516;-50
2023/06/11 06:53:27;;;;;;;6.00;2.30;;;;;;;16.91;59.57;100578.23;105652;1253;64437;-50
2023/06/11 06:55:55;;;;;;;5.90;2.50;;;;;;;16.87;59.39;100579.65;105611;1250;61385;-50
2023/06/11 06:58:23;;;;;;;5.10;2.20;;;;;;;16.82;59.69;100580.54;105819;1254;64000;-51
2023/06/11 07:00:49;;;;;;;5.90;2.80;;;;;;;16.78;60.06;100584.30;105490;1253;59753;-50
2023/06/11 07:03:17;;;;;;;7.70;2.70;;;;;;;16.74;60.49;100581.64;105609;1256;59644;-51
2023/06/11 07:05:44;;;;;;;4.60;2.20;;;;;;;16.73;60.33;100583.06;105545;1254;64084;-52
2023/06/11 07:08:12;;;;;;;5.70;2.20;;;;;;;16.76;60.38;100585.45;105737;1250;62788;-50
2023/06/11 07:10:47;;;;;;;5.40;1.90;;;;;;;16.77;60.61;100582.95;105824;1254;64296;-49
2023/06/11 07:13:15;;;;;;;6.10;2.70;;;;;;;16.78;60.48;100586.84;105711;1251;59761;-51
2023/06/11 07:15:59;;;;;;;5.50;2.60;;;;;;;16.71;60.16;100592.06;105721;1251;59737;-51
2023/06/11 07:18:27;;;;;;;6.10;2.50;;;;;;;16.65;60.47;100595.21;105564;1250;63017;-53
2023/06/11 07:20:55;;;;;;;7.90;2.60;;;;;;;16.61;60.68;100596.69;105722;1253;61333;-51
2023/06/11 07:23:22;;;;;;;7.90;2.20;;;;;;;16.60;60.54;100600.14;105633;1256;63802;-50
2023/06/11 07:25:50;;;;;;;5.20;2.50;;;;;;;16.60;60.42;100603.15;105682;1251;59651;-50
2023/06/11 07:28:17;;;;;;;7.60;2.20;;;;;;;16.58;60.69;100606.54;105827;1250;59734;-50
2023/06/11 07:30:48;;;;;;;7.40;2.30;;;;;;;16.57;60.61;100602.46;105571;1256;64534;-52
2023/06/11 07:33:17;;;;;;;5.40;2.60;;;;;;;16.52;60.85;100595.40;105706;1251;60895;-48
2023/06/11 07:35:45;;;;;;;4.90;2.10;;;;;;;16.46;60.84;100600.86;105655;1250;62552;-49
2023/06/11 07:38:12;;;;;;;4.80;2.30;;;;;;;16.42;60.89;100601.58;105649;1252;59782;-51
2023/06/11 07:40:39;;;;;;;6.70;2.30;;;;;;;16.37;60.37;100605.82;105697;1251;59776;-52
2023/06/11 07:43:06;;;;;;;5.90;2.30;;;;;;;16.30;60.51;100603.33;105689;1254;64218;-50
2023/06/11 07:45:34;;;;;;;6.70;2.30;;;;;;;16.19;60.84;100605.12;105831;1253;61521;-49
2023/06/11 07:48:02;;;;;;;10.00;2.20;;;;;;;16.13;61.38;100604.35;105619;1250;63897;-52
2023/06/11 07:50:29;;;;;;;6.70;2.20;;;;;;;16.14;61.40;100608.48;105474;1253;61945;-49
2023/06/11 07:52:56;;;;;;;5.30;2.10;;;;;;;16.15;61.31;100614.39;105847;1250;59670;-50
2023/06/11 07:55:24;;;;;;;4.80;2.20;;;;;;;16.13;61.56;100617.23;105741;1254;64168;-50
2023/06/11 07:57:51;;;;;;;8.10;2.60;;;;;;;16.13;61.65;100615.16;105733;1250;61423;-51
2023/06/11 08:00:18;;;;;;;5.90;2.40;;;;;;;16.07;61.17;100613.63;105863;1254;63684;-50
2023/06/11 08:02:44;;;;;;;5.80;2.20;;;;;;;16.02;61.73;100616.59;105559;1250;59740;-50
2023/06/11 08:05:17;;;;;;;7.50;2.30;;;;;;;16.06;61.88;100616.16;105811;1251;59501;-50
2023/06/11 08:07:45;;;;;;;6.60;2.20;;;;;;;16.10;61.17;100619.83;105696;1254;64384;-52
2023/06/11 08:10:11;;;;;;;6.80;2.50;;;;;;;16.06;61.13;100618.63;105843;1250;61503;-50
2023/06/11 08:12:39;;;;;;;4.60;2.20;;;;;;;16.03;61.57;100614.71;105678;1254;63771;-51
2023/06/11 08:15:07;;;;;;;6.20;2.30;;;;;;;16.00;61.34;100617.27;105651;1254;59675;-55
2023/06/11 08:17:34;;;;;;;4.60;2.30;;;;;;;15.96;61.32;100617.68;105469;1253;59737;-52
2023/06/11 08:20:02;;;;;;;5.60;1.90;;;;;;;15.97;61.41;100615.27;105484;1255;64419;-49
2023/06/11 08:22:29;;;;;;;6.20;2.20;;;;;;;16.01;61.35;100613.98;105751;1250;62215;-48
2023/06/11 08:24:56;;;;;;;4.30;1.80;;;;;;;16.07;61.54;100617.86;105764;1254;62448;-49
2023/06/11 08:27:22;;;;;;;5.70;2.20;;;;;;;16.11;61.40;100616.06;105620;1250;60551;-50
2023/06/11 08:29:49;;;;;;;5.90;2.40;;;;;;;16.10;61.05;100613.25;105671;1250;60460;-50
2023/06/11 08:32:16;;;;;;;6.20;2.10;;;;;;;16.08;60.49;100611.74;105559;1254;65020;-50
2023/06/11 08:34:43;;;;;;;5.00;2.20;;;;;;;16.06;60.50;100607.29;105852;1256;62263;-51
2023/06/11 08:37:10;;;;;;;5.80;1.90;;;;;;;16.04;60.63;100605.73;105564;1253;63777;-51
2023/06/11 08:39:37;;;;;;;5.60;2.30;;;;;;;16.02;60.73;100599.81;105751;1250;60518;-51
2023/06/11 08:42:05;;;;;;;8.30;2.30;;;;;;;15.99;60.75;100598.27;105690;1251;59441;-51
2023/06/11 08:44:32;;;;;;;7.00;2.20;;;;;;;15.96;60.55;100595.41;105744;1254;65131;-50
2023/06/11 08:46:59;;;;;;;5.40;2.50;;;;;;;15.97;60.48;100590.88;105576;1251;61368;-51
2023/06/11 08:49:26;;;;;;;6.40;1.90;;;;;;;16.03;60.68;100587.31;105522;1251;63853;-51
2023/06/11 08:51:53;;;;;;;6.10;2.50;;;;;;;16.08;61.07;100587.29;106090;1250;60473;-50
2023/06/11 08:54:20;;;;;;;5.80;2.10;;;;;;;16.11;60.40;100591.23;105697;1250;60421;-49
2023/06/11 08:56:47;;;;;;;5.60;2.50;;;;;;;16.11;59.92;100593.71;105760;1253;65770;-48
2023/06/11 08:59:14;;;;;;;3.70;1.60;;;;;;;16.10;59.99;100599.71;105782;1256;62645;-50
2023/06/11 09:01:40;;;;;;;5.80;2.20;;;;;;;16.13;60.31;100601.33;105739;1250;64089;-54
2023/06/11 09:04:07;;;;;;;5.60;2.20;;;;;;;16.18;59.77;100603.70;105554;1257;60511;-49
2023/06/11 09:06:36;;;;;;;8.80;2.30;;;;;;;16.20;59.47;100605.66;105723;1251;60434;-52
2023/06/11 09:09:05;;;;;;;4.40;1.90;;;;;;;16.19;59.55;100610.46;105680;1254;65173;-52
2023/06/11 09:11:36;;;;;;;5.30;2.40;;;;;;;16.19;59.70;100609.46;106332;1251;61814;-52
2023/06/11 09:14:03;;;;;;;4.70;1.90;;;;;;;16.19;60.19;100612.10;105653;1250;64010;-52
2023/06/11 09:16:37;;;;;;;5.80;2.00;;;;;;;16.22;60.16;100612.14;105823;1254;60597;-51
2023/06/11 09:19:05;;;;;;;5.30;1.90;;;;;;;16.25;60.25;100611.08;109338;1251;58463;-49
2023/06/11 09:21:31;;;;;;;9.70;2.10;;;;;;;16.26;59.79;100612.48;107318;1250;64015;-51
2023/06/11 09:24:07;;;;;;;4.80;1.80;;;;;;;16.21;59.60;100616.11;105563;1251;62357;-51
2023/06/11 09:26:34;;;;;;;8.50;2.20;;;;;;;16.14;59.36;100617.14;107165;1254;64038;-51
2023/06/11 09:29:01;;;;;;;5.00;1.80;;;;;;;16.07;59.45;100622.08;105666;1250;60959;-50
2023/06/11 09:31:28;;;;;;;4.20;1.90;;;;;;;16.00;59.62;100619.10;105730;1251;60447;-51
2023/06/11 09:34:00;;;;;;;4.10;1.80;;;;;;;15.96;59.73;100619.49;105571;1250;65253;-53
2023/06/11 09:36:29;;;;;;;4.60;1.70;;;;;;;15.95;60.10;100616.91;105621;1250;61340;-49
2023/06/11 09:38:55;;;;;;;4.90;2.30;;;;;;;15.90;59.76;100614.56;105815;1250;64145;-52
2023/06/11 09:41:23;;;;;;;5.00;1.90;;;;;;;15.83;60.01;100623.06;105812;1253;60425;-51
2023/06/11 09:43:52;;;;;;;5.70;2.10;;;;;;;15.76;60.13;100624.55;105714;1250;60432;-51
2023/06/11 09:46:19;;;;;;;4.20;1.90;;;;;;;15.73;60.63;100626.58;105672;1253;65193;-51
2023/06/11 09:48:47;;;;;;;6.00;2.00;;;;;;;15.79;60.83;100623.09;105688;1251;61518;-50
2023/06/11 09:51:14;;;;;;;4.50;1.90;;;;;;;15.87;60.88;100627.05;105625;1253;64039;-50
2023/06/11 09:53:43;;;;;;;5.10;2.00;;;;;;;15.94;60.56;100626.58;105549;1250;60489;-50
2023/06/11 09:56:10;;;;;;;5.30;1.80;;;;;;;15.95;60.38;100627.69;105542;1251;60408;-50
2023/06/11 09:58:39;;;;;;;3.80;1.90;;;;;;;15.93;60.25;100626.52;105814;1254;64949;-50
2023/06/11 10:01:06;;;;;;;4.50;1.70;;;;;;;15.90;60.55;100623.42;105858;1250;61702;-50
2023/06/11 10:03:34;;;;;;;6.70;1.80;;;;;;;15.87;60.27;100616.70;105702;1251;63872;-54
2023/06/11 10:06:05;;;;;;;5.10;1.50;;;;;;;15.86;60.62;100627.06;105819;1251;60529;-50
2023/06/11 10:08:33;;;;;;;4.40;1.70;;;;;;;15.80;60.21;100630.20;105779;1251;60437;-49
2023/06/11 10:11:01;;;;;;;5.40;2.00;;;;;;;15.71;60.55;100628.59;108615;1252;65157;-49
2023/06/11 10:13:29;;;;;;;7.50;1.90;;;;;;;15.65;61.14;100628.82;105717;1256;60401;-53
2023/06/11 10:16:01;;;;;;;4.20;1.70;;;;;;;15.65;61.02;100628.10;105769;1254;62835;-50
2023/06/11 10:18:29;;;;;;;4.30;1.60;;;;;;;15.66;60.65;100634.26;105835;1251;60555;-48
2023/06/11 10:21:03;;;;;;;4.90;2.10;;;;;;;15.64;60.67;100635.64;105840;1253;60479;-51
2023/06/11 10:23:40;;;;;;;4.50;1.70;;;;;;;15.60;60.87;100634.46;105787;1251;64901;-51
2023/06/11 10:26:10;;;;;;;4.60;2.00;;;;;;;15.55;60.86;100638.48;105739;1256;61502;-51
2023/06/11 10:28:43;;;;;;;4.30;1.90;;;;;;;15.54;60.97;100637.48;105837;1254;62931;-48
2023/06/11 10:31:10;;;;;;;5.40;2.20;;;;;;;15.55;61.12;100638.27;105812;1253;60559;-52
2023/06/11 10:33:45;;;;;;;5.50;1.70;;;;;;;15.55;61.29;100643.73;105600;1253;60476;-51
2023/06/11 10:36:29;;;;;;;7.00;2.10;;;;;;;15.56;61.40;100642.48;105710;1254;65151;-50
2023/06/11 10:39:08;;;;;;;6.50;2.30;;;;;;;15.52;61.19;100642.34;105592;1256;61433;-50
2023/06/11 10:41:39;;;;;;;4.60;2.20;;;;;;;15.48;61.29;100644.51;105746;1251;64042;-50
2023/06/11 10:44:06;;;;;;;6.70;2.40;;;;;;;15.49;61.45;100649.52;105721;1253;60566;-50
2023/06/11 10:46:50;;;;;;;5.10;1.80;;;;;;;15.49;61.23;100648.63;105739;1250;60373;-52
2023/06/11 10:49:20;;;;;;;4.60;2.10;;;;;;;15.44;61.33;100649.94;105643;1250;65086;-50
2023/06/11 10:51:51;;;;;;;4.70;2.30;;;;;;;15.36;61.45;100656.88;105798;1250;61468;-53
2023/06/11 10:54:38;;;;;;;6.00;2.40;;;;;;;15.32;61.82;100654.47;105632;1250;62731;-50
2023/06/11 10:57:06;;;;;;;5.10;2.50;;;;;;;15.34;62.00;100657.58;105509;1253;60533;-50
2023/06/11 10:59:32;;;;;;;5.00;1.90;;;;;;;15.36;61.58;100659.16;106114;1251;60309;-52
2023/06/11 11:01:59;;;;;;;5.10;2.60;;;;;;;15.36;61.67;100653.48;107618;1253;65453;-50
2023/06/11 11:04:26;;;;;;;4.30;2.10;;;;;;;15.37;62.01;100651.84;105585;1254;60545;-51
2023/06/11 11:07:03;;;;;;;5.90;2.10;;;;;;;15.36;62.07;100654.98;105729;1254;63808;-51
2023/06/11 11:09:30;;;;;;;5.50;2.20;;;;;;;15.37;61.73;100658.18;105672;1253;60502;-50
2023/06/11 11:11:58;;;;;;;5.90;2.20;;;;;;;15.37;61.48;100659.27;106044;1253;60537;-51
2023/06/11 11:14:27;;;;;;;4.80;2.50;;;;;;;15.34;61.46;100662.28;105677;1250;65287;-51
2023/06/11 11:16:55;;;;;;;5.50;2.40;;;;;;;15.28;61.58;100658.54;105786;1251;61574;-52
2023/06/11 11:19:25;;;;;;;7.60;4.70;;;;;;;15.22;61.69;100658.90;105640;1252;64433;-49
2023/06/11 11:21:52;;;;;;;9.30;4.60;;;;;;;15.21;61.80;100662.82;105639;1253;60575;-50
2023/06/11 11:24:19;;;;;;;5.30;2.80;;;;;;;15.20;61.71;100657.70;105640;1250;61288;-52